Marinicki — 9HWU9 — position and weather

sailwx.info

Track history (hours):
 
Tides and Currents Weather Stations Pressure Air Temp Water Temp Dewpoint Dewpoint Depression Visibility Wind Speed Wind Dir Waves Ship Positions

Marinicki

Last reported at 2017-Apr-20 06:05 UTC. Time now 2017-May-26 19:02 UTC.
Position N 36°51' W 075°49'.
Warning: this ship's position is 36 days out of date.

Length 225 m; draft 14.3 m.

Type: Cargo ship. MMSI: 249650000.

Date/timePositionNaut miles runAvg speedWind from/ knotsBaromVisibWave heightAir tempDewpointWater temp
2017-Apr-20 06:05N 36°51' W 075°49'1 8.7
2017-Apr-20 05:57N 36°51' W 075°51'4 8.4
2017-Apr-20 05:28N 36°54' W 075°54'4 8.7
2017-Apr-20 05:00N 36°56' W 075°59'5 9.0
2017-Apr-20 04:30N 36°58' W 076°04'13 9.0
2017-Apr-20 03:05N 36°58' W 076°20'1 9.7
2017-Apr-20 03:00N 36°58' W 076°21'4 0.1
2017-Apr-18 19:32N 36°58' W 076°25'1 2.6
2017-Apr-18 19:19N 36°57' W 076°25'3 9.0
2017-Apr-18 19:00N 36°57' W 076°21'5 8.8
2017-Apr-18 18:30N 36°53' W 076°20'0 0.7
2017-Apr-18 17:58N 36°53' W 076°20'0 0.0
2017-Apr-18 17:30N 36°53' W 076°20'0 0.0
2017-Apr-18 17:00N 36°53' W 076°20'0 0.0
2017-Apr-18 16:31N 36°53' W 076°20'0 0.0
2017-Apr-18 16:01N 36°53' W 076°20'0 0.0
2017-Apr-18 15:28N 36°53' W 076°20'0 0.0
2017-Apr-18 14:58N 36°53' W 076°20'0 0.0
2017-Apr-18 14:31N 36°53' W 076°20'0 0.0
2017-Apr-18 13:28N 36°53' W 076°20'0 0.0
2017-Apr-18 12:58N 36°53' W 076°20'0 0.0
2017-Apr-18 12:28N 36°53' W 076°20'0 0.0
2017-Apr-18 12:01N 36°53' W 076°20'0 0.0
2017-Apr-18 11:31N 36°53' W 076°20'0 0.0
2017-Apr-18 11:01N 36°53' W 076°20'0 0.0
2017-Apr-18 10:27N 36°53' W 076°20'0 0.0
2017-Apr-18 10:01N 36°53' W 076°20'0 0.0
2017-Apr-18 09:30N 36°53' W 076°20'0 0.0
2017-Apr-18 09:01N 36°53' W 076°20'0 0.0
2017-Apr-18 08:28N 36°53' W 076°20'0 0.0
2017-Apr-18 08:00N 36°53' W 076°20'0 0.0
2017-Apr-18 07:28N 36°53' W 076°20'0 0.0
2017-Apr-18 07:01N 36°53' W 076°20'0 0.0
2017-Apr-18 06:31N 36°53' W 076°20'0 0.0
2017-Apr-18 05:54N 36°53' W 076°20'0 0.0
2017-Apr-18 05:25N 36°53' W 076°20'0 0.0
2017-Apr-18 05:01N 36°53' W 076°20'0 0.0
2017-Apr-18 04:31N 36°53' W 076°20'0 0.0
2017-Apr-18 04:01N 36°53' W 076°20'0 0.0
2017-Apr-18 03:31N 36°53' W 076°20'0 0.0
2017-Apr-18 02:58N 36°53' W 076°20'0 0.0
2017-Apr-18 02:31N 36°53' W 076°20'0 0.0
2017-Apr-18 02:01N 36°53' W 076°20'0 0.0
2017-Apr-18 01:28N 36°53' W 076°20'0 0.0
2017-Apr-18 00:58N 36°53' W 076°20'0 0.0
2017-Apr-18 00:31N 36°53' W 076°20'0 0.0
2017-Apr-17 23:57N 36°53' W 076°20'0 0.0
2017-Apr-17 23:28N 36°53' W 076°20'0 0.0
2017-Apr-17 23:00N 36°53' W 076°20'0 0.0
2017-Apr-17 22:28N 36°53' W 076°20'0 0.0
2017-Apr-17 21:58N 36°53' W 076°20'0 0.0
2017-Apr-17 21:31N 36°53' W 076°20'0 0.0
2017-Apr-17 21:01N 36°53' W 076°20'0 0.0
2017-Apr-17 20:28N 36°53' W 076°20'0 0.0
2017-Apr-17 19:58N 36°53' W 076°20'0 0.0
2017-Apr-17 19:30N 36°53' W 076°20'0 0.0
2017-Apr-17 19:01N 36°53' W 076°20'0 0.0
2017-Apr-17 18:28N 36°53' W 076°20'0 0.0
2017-Apr-17 18:01N 36°53' W 076°20'0 0.0
2017-Apr-17 17:31N 36°53' W 076°20'0 0.0
2017-Apr-17 17:01N 36°53' W 076°20'0 0.0
2017-Apr-17 16:28N 36°53' W 076°20'0 0.0
2017-Apr-17 15:16N 36°53' W 076°20'0 0.0
2017-Apr-17 15:01N 36°53' W 076°20'0 0.0
2017-Apr-17 14:00N 36°53' W 076°20'2 3.2
2017-Apr-17 13:30N 36°54' W 076°20'5 9.5
2017-Apr-17 13:00N 36°59' W 076°19'6 8.8
2017-Apr-17 12:22N 36°60' W 076°12'410.2
2017-Apr-17 12:00N 36°59' W 076°08'5 9.5
2017-Apr-17 11:30N 36°58' W 076°02'5 9.8
2017-Apr-17 11:00N 37°03' W 076°04'10 0.9
2017-Apr-16 23:05N 37°13' W 076°06'0 0.0
2017-Apr-15 12:11N 37°13' W 076°06'0 0.2
2017-Apr-15 11:59N 37°13' W 076°06'0 0.0
2017-Apr-15 11:29N 37°13' W 076°06'0 0.1
2017-Apr-15 10:47N 37°13' W 076°07'0 0.0
2017-Apr-15 08:59N 37°13' W 076°06'0 0.1
2017-Apr-15 08:29N 37°13' W 076°07'0 0.1
2017-Apr-15 06:57N 37°13' W 076°06'0 0.3
2017-Apr-15 06:31N 37°13' W 076°06'4 7.7
2017-Apr-15 06:00N 37°09' W 076°07'612.8
2017-Apr-15 05:30N 37°03' W 076°04'510.4
2017-Apr-15 05:01N 36°58' W 076°02'5 9.9
2017-Apr-15 04:30N 36°59' W 076°08'5 9.3
2017-Apr-15 04:01N 37°00' W 076°14'4 8.8
2017-Apr-15 03:30N 36°59' W 076°19'5 9.4
2017-Apr-15 03:00N 36°54' W 076°20'3 5.4
2017-Apr-15 02:31N 36°52' W 076°19'0 0.4
2017-Apr-15 01:56N 36°52' W 076°19'0 0.0
2017-Apr-15 01:29N 36°52' W 076°19'0 0.0
2017-Apr-15 00:59N 36°52' W 076°19'0 0.0
2017-Apr-15 00:29N 36°52' W 076°19'0 0.0
2017-Apr-14 23:59N 36°52' W 076°19'0 0.0
2017-Apr-14 23:29N 36°52' W 076°19'0 0.0
2017-Apr-14 22:59N 36°52' W 076°19'0 0.0
2017-Apr-14 22:29N 36°52' W 076°19'0 0.0
2017-Apr-14 21:59N 36°52' W 076°19'0 0.0
2017-Apr-14 21:29N 36°52' W 076°19'0 0.0
2017-Apr-14 20:53N 36°52' W 076°19'0 0.0
2017-Apr-14 20:29N 36°52' W 076°19'0 0.0
2017-Apr-14 19:59N 36°52' W 076°19'0 0.0
2017-Apr-14 19:29N 36°52' W 076°19'0 0.0
2017-Apr-14 18:59N 36°52' W 076°19'0 0.0
2017-Apr-14 18:29N 36°52' W 076°19'0 0.0
2017-Apr-14 17:59N 36°52' W 076°19'0 0.0
2017-Apr-14 17:29N 36°52' W 076°19'0 0.0
2017-Apr-14 16:59N 36°52' W 076°19'0 0.0
2017-Apr-14 16:29N 36°52' W 076°19'0 0.0
2017-Apr-14 15:59N 36°52' W 076°19'0 0.0
2017-Apr-14 15:29N 36°52' W 076°19'0 0.0
2017-Apr-14 14:59N 36°52' W 076°19'0 0.0
2017-Apr-14 13:59N 36°52' W 076°19'0 0.0
2017-Apr-14 13:29N 36°52' W 076°19'0 0.0
2017-Apr-14 12:56N 36°52' W 076°19'0 0.0
2017-Apr-14 12:26N 36°52' W 076°19'0 0.0
2017-Apr-14 11:59N 36°52' W 076°19'0 0.0
2017-Apr-14 11:29N 36°52' W 076°19'0 0.0
2017-Apr-14 10:59N 36°52' W 076°19'0 0.0
2017-Apr-14 10:26N 36°52' W 076°19'0 0.0
2017-Apr-14 09:59N 36°52' W 076°19'0 0.0
2017-Apr-14 09:29N 36°52' W 076°19'0 0.0
2017-Apr-14 08:59N 36°52' W 076°19'0 0.0
2017-Apr-14 08:29N 36°52' W 076°19'0 0.0
2017-Apr-14 07:59N 36°52' W 076°19'0 0.0
2017-Apr-14 07:29N 36°52' W 076°19'0 0.0
2017-Apr-14 06:59N 36°52' W 076°19'0 0.0
2017-Apr-14 06:29N 36°52' W 076°19'0 0.0
2017-Apr-14 05:59N 36°52' W 076°19'0 0.0
2017-Apr-14 05:29N 36°52' W 076°19'0 0.0
2017-Apr-14 04:59N 36°52' W 076°19'0 0.0
2017-Apr-14 04:29N 36°52' W 076°19'0 0.0
2017-Apr-14 03:59N 36°52' W 076°19'0 0.0
2017-Apr-14 03:29N 36°52' W 076°19'0 0.0
2017-Apr-14 02:59N 36°52' W 076°19'0 0.0
2017-Apr-14 02:29N 36°52' W 076°19'0 0.0
2017-Apr-14 01:59N 36°52' W 076°19'0 0.0
2017-Apr-14 01:29N 36°52' W 076°19'0 0.0
2017-Apr-14 00:59N 36°52' W 076°19'0 0.0
2017-Apr-14 00:29N 36°52' W 076°19'0 0.0
2017-Apr-13 23:59N 36°52' W 076°19'0 0.0
2017-Apr-13 23:29N 36°52' W 076°19'0 0.0
2017-Apr-13 22:59N 36°52' W 076°19'0 0.0
2017-Apr-13 22:29N 36°52' W 076°19'0 0.0
2017-Apr-13 21:59N 36°52' W 076°19'0 0.0
2017-Apr-13 21:29N 36°52' W 076°19'0 0.0
2017-Apr-13 20:59N 36°52' W 076°19'0 0.0
2017-Apr-13 20:29N 36°52' W 076°19'0 0.0
2017-Apr-13 19:59N 36°52' W 076°19'0 0.0
2017-Apr-13 19:29N 36°52' W 076°19'0 0.0
2017-Apr-13 18:59N 36°52' W 076°19'0 0.0
2017-Apr-13 18:29N 36°52' W 076°19'0 0.0
2017-Apr-13 17:59N 36°52' W 076°19'0 0.0
2017-Apr-13 17:29N 36°52' W 076°19'0 0.0
2017-Apr-13 16:56N 36°52' W 076°19'0 0.0
2017-Apr-13 16:29N 36°52' W 076°19'0 0.0
2017-Apr-13 15:59N 36°52' W 076°19'0 0.0
2017-Apr-13 15:29N 36°52' W 076°19'0 0.0
2017-Apr-13 14:59N 36°52' W 076°19'0 0.0
2017-Apr-13 13:59N 36°52' W 076°19'0 0.0
2017-Apr-13 13:29N 36°52' W 076°19'0 0.0
2017-Apr-13 12:59N 36°52' W 076°19'0 0.0
2017-Apr-13 12:29N 36°52' W 076°19'0 0.0
2017-Apr-13 11:59N 36°52' W 076°19'0 0.0
2017-Apr-13 11:29N 36°52' W 076°19'0 0.0
2017-Apr-13 10:59N 36°52' W 076°19'0 0.0
2017-Apr-13 10:29N 36°52' W 076°19'0 0.0
2017-Apr-13 09:59N 36°52' W 076°19'0 0.0
2017-Apr-13 09:29N 36°52' W 076°19'0 0.0
2017-Apr-13 08:59N 36°52' W 076°19'0 0.0
2017-Apr-13 08:29N 36°52' W 076°19'0 0.0
2017-Apr-13 07:59N 36°52' W 076°19'0 0.0
2017-Apr-13 07:29N 36°52' W 076°19'0 0.0
2017-Apr-13 06:59N 36°52' W 076°19'0 0.0
2017-Apr-13 06:29N 36°52' W 076°19'0 0.0
2017-Apr-13 05:59N 36°52' W 076°19'0 0.0
2017-Apr-13 05:29N 36°52' W 076°19'0 0.0
2017-Apr-13 04:59N 36°52' W 076°19'0 0.0
2017-Apr-13 04:29N 36°52' W 076°19'0 0.0
2017-Apr-13 03:59N 36°52' W 076°19'0 0.0
2017-Apr-13 03:29N 36°52' W 076°19'0 0.0
2017-Apr-13 02:59N 36°52' W 076°19'0 0.0
2017-Apr-13 02:29N 36°52' W 076°19'0 0.0
2017-Apr-13 01:59N 36°52' W 076°19'0 0.0
2017-Apr-13 01:29N 36°52' W 076°19'0 0.0
2017-Apr-13 00:59N 36°52' W 076°19'0 0.0
2017-Apr-13 00:29N 36°52' W 076°19'0 0.0
2017-Apr-12 23:59N 36°52' W 076°19'0 0.0
2017-Apr-12 23:20N 36°52' W 076°19'0 0.0
2017-Apr-12 22:59N 36°52' W 076°19'0 0.0
2017-Apr-12 22:29N 36°52' W 076°19'0 0.0
2017-Apr-12 21:59N 36°52' W 076°19'0 0.0
2017-Apr-12 21:29N 36°52' W 076°19'0 0.0
2017-Apr-12 20:59N 36°52' W 076°19'0 0.0
2017-Apr-12 20:29N 36°52' W 076°19'0 0.0
2017-Apr-12 19:56N 36°52' W 076°19'0 0.0
2017-Apr-12 19:29N 36°52' W 076°19'0 0.0
2017-Apr-12 18:59N 36°52' W 076°19'0 0.0
2017-Apr-12 18:29N 36°52' W 076°19'0 0.0
2017-Apr-12 17:59N 36°52' W 076°19'0 0.0
2017-Apr-12 17:29N 36°52' W 076°19'0 0.0
2017-Apr-12 16:53N 36°52' W 076°19'0 0.0
2017-Apr-12 16:29N 36°52' W 076°19'0 0.0
2017-Apr-12 15:59N 36°52' W 076°19'0 0.0
2017-Apr-12 15:29N 36°52' W 076°19'0 0.0
2017-Apr-12 14:59N 36°52' W 076°19'0 0.0
2017-Apr-12 14:29N 36°52' W 076°19'0 0.0
2017-Apr-12 13:29N 36°52' W 076°19'0 0.0
2017-Apr-12 12:59N 36°52' W 076°19'0 0.0
2017-Apr-12 12:29N 36°52' W 076°19'0 0.0
2017-Apr-12 11:59N 36°52' W 076°19'0 0.0
2017-Apr-12 11:29N 36°52' W 076°19'0 0.0
2017-Apr-12 10:59N 36°52' W 076°19'0 0.0
2017-Apr-12 10:29N 36°52' W 076°19'0 0.0
2017-Apr-12 09:59N 36°52' W 076°19'0 0.0
2017-Apr-12 09:29N 36°52' W 076°19'0 0.0
2017-Apr-12 08:59N 36°52' W 076°19'0 0.0
2017-Apr-12 08:29N 36°52' W 076°19'0 0.0
2017-Apr-12 07:59N 36°52' W 076°19'0 0.0
2017-Apr-12 07:29N 36°52' W 076°19'0 0.0
2017-Apr-12 06:59N 36°52' W 076°19'0 0.0
2017-Apr-12 06:14N 36°52' W 076°19'0 0.0
2017-Apr-12 05:59N 36°52' W 076°19'0 0.0
2017-Apr-12 05:29N 36°52' W 076°19'0 0.0
2017-Apr-12 04:56N 36°52' W 076°19'0 0.0
2017-Apr-12 04:29N 36°52' W 076°19'0 0.0
2017-Apr-12 03:59N 36°52' W 076°19'0 0.0
2017-Apr-12 03:29N 36°52' W 076°19'0 0.0
2017-Apr-12 02:56N 36°52' W 076°19'0 0.0
2017-Apr-12 02:29N 36°52' W 076°19'0 0.0
2017-Apr-12 01:59N 36°52' W 076°19'0 0.0
2017-Apr-12 01:29N 36°52' W 076°19'0 0.0
2017-Apr-12 00:56N 36°52' W 076°19'0 0.0
2017-Apr-12 00:29N 36°52' W 076°19'0 0.0
2017-Apr-11 23:59N 36°52' W 076°19'0 0.0
2017-Apr-11 23:29N 36°52' W 076°19'0 0.0
2017-Apr-11 22:59N 36°52' W 076°19'0 0.0
2017-Apr-11 22:29N 36°52' W 076°19'0 0.0
2017-Apr-11 21:59N 36°52' W 076°19'0 0.0
2017-Apr-11 21:29N 36°52' W 076°19'0 0.0
2017-Apr-11 20:59N 36°52' W 076°19'0 0.0
2017-Apr-11 20:29N 36°52' W 076°19'0 0.0
2017-Apr-11 19:59N 36°52' W 076°19'0 0.0
2017-Apr-11 19:29N 36°52' W 076°19'0 0.0
2017-Apr-11 18:59N 36°52' W 076°19'0 0.0
2017-Apr-11 18:29N 36°52' W 076°19'0 0.0
2017-Apr-11 17:59N 36°52' W 076°19'0 0.0
2017-Apr-11 17:29N 36°52' W 076°19'0 0.0
2017-Apr-11 16:59N 36°52' W 076°19'0 0.0
2017-Apr-11 16:29N 36°52' W 076°19'0 0.0
2017-Apr-11 15:56N 36°52' W 076°19'0 0.0
2017-Apr-11 15:29N 36°52' W 076°19'0 0.0
2017-Apr-11 14:59N 36°52' W 076°19'0 0.0
2017-Apr-11 14:29N 36°52' W 076°19'0 0.0
2017-Apr-11 13:29N 36°52' W 076°19'0 0.0
2017-Apr-11 12:59N 36°52' W 076°19'0 0.0
2017-Apr-11 12:29N 36°52' W 076°19'0 0.0
2017-Apr-11 11:59N 36°52' W 076°19'0 0.0
2017-Apr-11 11:29N 36°52' W 076°19'0 0.0
2017-Apr-11 10:59N 36°52' W 076°19'0 0.0
2017-Apr-11 10:29N 36°52' W 076°19'0 0.0
2017-Apr-11 09:59N 36°52' W 076°19'0 0.0
2017-Apr-11 09:29N 36°52' W 076°19'0 0.0
2017-Apr-11 08:59N 36°52' W 076°19'0 0.0
2017-Apr-11 08:29N 36°52' W 076°19'0 0.0
2017-Apr-11 07:59N 36°52' W 076°19'0 0.0
2017-Apr-11 07:29N 36°52' W 076°19'0 0.0
2017-Apr-11 06:59N 36°52' W 076°19'0 0.0
2017-Apr-11 06:29N 36°52' W 076°19'0 0.0
2017-Apr-11 05:59N 36°52' W 076°19'0 0.0
2017-Apr-11 05:29N 36°52' W 076°19'0 0.0
2017-Apr-11 04:59N 36°52' W 076°19'0 0.0
2017-Apr-11 04:29N 36°52' W 076°19'0 0.0
2017-Apr-11 03:59N 36°52' W 076°19'0 0.0
2017-Apr-11 03:29N 36°52' W 076°19'0 0.0
2017-Apr-11 02:59N 36°52' W 076°19'0 0.0
2017-Apr-11 02:29N 36°52' W 076°19'0 0.0
2017-Apr-11 01:59N 36°52' W 076°19'0 0.0
2017-Apr-11 01:29N 36°52' W 076°19'0 0.0
2017-Apr-11 00:59N 36°52' W 076°19'0 0.0
2017-Apr-11 00:29N 36°52' W 076°19'0 0.0
2017-Apr-10 23:59N 36°52' W 076°19'0 0.0
2017-Apr-10 23:29N 36°52' W 076°19'0 0.0
2017-Apr-10 22:59N 36°52' W 076°19'0 0.0
2017-Apr-10 22:29N 36°52' W 076°19'0 0.0
2017-Apr-10 21:59N 36°52' W 076°19'0 0.0
2017-Apr-10 21:29N 36°52' W 076°19'0 0.0
2017-Apr-10 20:59N 36°52' W 076°19'0 0.0
2017-Apr-10 20:29N 36°52' W 076°19'0 0.0
2017-Apr-10 19:59N 36°52' W 076°19'0 0.0
2017-Apr-10 19:29N 36°52' W 076°19'0 0.0
2017-Apr-10 18:59N 36°52' W 076°19'0 0.0
2017-Apr-10 18:29N 36°52' W 076°19'0 0.0
2017-Apr-10 17:59N 36°52' W 076°19'0 0.0
2017-Apr-10 17:29N 36°52' W 076°19'0 0.0
2017-Apr-10 16:59N 36°52' W 076°19'0 0.0
2017-Apr-10 16:29N 36°52' W 076°19'0 0.0
2017-Apr-10 15:59N 36°52' W 076°19'0 0.0
2017-Apr-10 15:29N 36°52' W 076°19'0 0.0
2017-Apr-10 14:59N 36°52' W 076°19'0 0.0
2017-Apr-10 13:59N 36°52' W 076°19'0 0.0
2017-Apr-10 13:29N 36°52' W 076°19'0 0.0
2017-Apr-10 12:59N 36°52' W 076°19'0 0.0
2017-Apr-10 12:29N 36°52' W 076°19'0 0.0
2017-Apr-10 11:59N 36°52' W 076°19'0 0.0
2017-Apr-10 11:29N 36°52' W 076°19'0 0.0
2017-Apr-10 10:59N 36°52' W 076°19'0 0.0
2017-Apr-10 10:29N 36°52' W 076°19'0 0.0
2017-Apr-10 09:59N 36°52' W 076°19'0 0.0
2017-Apr-10 09:29N 36°52' W 076°19'0 0.0
2017-Apr-10 08:56N 36°52' W 076°19'0 0.0
2017-Apr-10 08:29N 36°52' W 076°19'0 0.0
2017-Apr-10 07:59N 36°52' W 076°19'0 0.0
2017-Apr-10 07:29N 36°52' W 076°19'0 0.0
2017-Apr-10 06:59N 36°52' W 076°19'0 0.0
2017-Apr-10 06:29N 36°52' W 076°19'  
Track history (hours):
 
Tides and Currents Weather Stations Pressure Air Temp Water Temp Dewpoint Dewpoint Depression Visibility Wind Speed Wind Dir Waves Ship Positions

Marinicki

Last reported at 2017-Apr-20 06:05 UTC. Time now 2017-May-26 19:02 UTC.
Position N 36°51' W 075°49'.
Warning: this ship's position is 36 days out of date.

Length 225 m; draft 14.3 m.

Type: Cargo ship. MMSI: 249650000.

Date/timePositionNaut miles runAvg speedWind from/ knotsBaromVisibWave heightAir tempDewpointWater temp
2017-Apr-20 06:05N 36°51' W 075°49'1 8.7
2017-Apr-20 05:57N 36°51' W 075°51'4 8.4
2017-Apr-20 05:28N 36°54' W 075°54'4 8.7
2017-Apr-20 05:00N 36°56' W 075°59'5 9.0
2017-Apr-20 04:30N 36°58' W 076°04'13 9.0
2017-Apr-20 03:05N 36°58' W 076°20'1 9.7
2017-Apr-20 03:00N 36°58' W 076°21'4 0.1
2017-Apr-18 19:32N 36°58' W 076°25'1 2.6
2017-Apr-18 19:19N 36°57' W 076°25'3 9.0
2017-Apr-18 19:00N 36°57' W 076°21'5 8.8
2017-Apr-18 18:30N 36°53' W 076°20'0 0.7
2017-Apr-18 17:58N 36°53' W 076°20'0 0.0
2017-Apr-18 17:30N 36°53' W 076°20'0 0.0
2017-Apr-18 17:00N 36°53' W 076°20'0 0.0
2017-Apr-18 16:31N 36°53' W 076°20'0 0.0
2017-Apr-18 16:01N 36°53' W 076°20'0 0.0
2017-Apr-18 15:28N 36°53' W 076°20'0 0.0
2017-Apr-18 14:58N 36°53' W 076°20'0 0.0
2017-Apr-18 14:31N 36°53' W 076°20'0 0.0
2017-Apr-18 13:28N 36°53' W 076°20'0 0.0
2017-Apr-18 12:58N 36°53' W 076°20'0 0.0
2017-Apr-18 12:28N 36°53' W 076°20'0 0.0
2017-Apr-18 12:01N 36°53' W 076°20'0 0.0
2017-Apr-18 11:31N 36°53' W 076°20'0 0.0
2017-Apr-18 11:01N 36°53' W 076°20'0 0.0
2017-Apr-18 10:27N 36°53' W 076°20'0 0.0
2017-Apr-18 10:01N 36°53' W 076°20'0 0.0
2017-Apr-18 09:30N 36°53' W 076°20'0 0.0
2017-Apr-18 09:01N 36°53' W 076°20'0 0.0
2017-Apr-18 08:28N 36°53' W 076°20'0 0.0
2017-Apr-18 08:00N 36°53' W 076°20'0 0.0
2017-Apr-18 07:28N 36°53' W 076°20'0 0.0
2017-Apr-18 07:01N 36°53' W 076°20'0 0.0
2017-Apr-18 06:31N 36°53' W 076°20'0 0.0
2017-Apr-18 05:54N 36°53' W 076°20'0 0.0
2017-Apr-18 05:25N 36°53' W 076°20'0 0.0
2017-Apr-18 05:01N 36°53' W 076°20'0 0.0
2017-Apr-18 04:31N 36°53' W 076°20'0 0.0
2017-Apr-18 04:01N 36°53' W 076°20'0 0.0
2017-Apr-18 03:31N 36°53' W 076°20'0 0.0
2017-Apr-18 02:58N 36°53' W 076°20'0 0.0
2017-Apr-18 02:31N 36°53' W 076°20'0 0.0
2017-Apr-18 02:01N 36°53' W 076°20'0 0.0
2017-Apr-18 01:28N 36°53' W 076°20'0 0.0
2017-Apr-18 00:58N 36°53' W 076°20'0 0.0
2017-Apr-18 00:31N 36°53' W 076°20'0 0.0
2017-Apr-17 23:57N 36°53' W 076°20'0 0.0
2017-Apr-17 23:28N 36°53' W 076°20'0 0.0
2017-Apr-17 23:00N 36°53' W 076°20'0 0.0
2017-Apr-17 22:28N 36°53' W 076°20'0 0.0
2017-Apr-17 21:58N 36°53' W 076°20'0 0.0
2017-Apr-17 21:31N 36°53' W 076°20'0 0.0
2017-Apr-17 21:01N 36°53' W 076°20'0 0.0
2017-Apr-17 20:28N 36°53' W 076°20'0 0.0
2017-Apr-17 19:58N 36°53' W 076°20'0 0.0
2017-Apr-17 19:30N 36°53' W 076°20'0 0.0
2017-Apr-17 19:01N 36°53' W 076°20'0 0.0
2017-Apr-17 18:28N 36°53' W 076°20'0 0.0
2017-Apr-17 18:01N 36°53' W 076°20'0 0.0
2017-Apr-17 17:31N 36°53' W 076°20'0 0.0
2017-Apr-17 17:01N 36°53' W 076°20'0 0.0
2017-Apr-17 16:28N 36°53' W 076°20'0 0.0
2017-Apr-17 15:16N 36°53' W 076°20'0 0.0
2017-Apr-17 15:01N 36°53' W 076°20'0 0.0
2017-Apr-17 14:00N 36°53' W 076°20'2 3.2
2017-Apr-17 13:30N 36°54' W 076°20'5 9.5
2017-Apr-17 13:00N 36°59' W 076°19'6 8.8
2017-Apr-17 12:22N 36°60' W 076°12'410.2
2017-Apr-17 12:00N 36°59' W 076°08'5 9.5
2017-Apr-17 11:30N 36°58' W 076°02'5 9.8
2017-Apr-17 11:00N 37°03' W 076°04'10 0.9
2017-Apr-16 23:05N 37°13' W 076°06'0 0.0
2017-Apr-15 12:11N 37°13' W 076°06'0 0.2
2017-Apr-15 11:59N 37°13' W 076°06'0 0.0
2017-Apr-15 11:29N 37°13' W 076°06'0 0.1
2017-Apr-15 10:47N 37°13' W 076°07'0 0.0
2017-Apr-15 08:59N 37°13' W 076°06'0 0.1
2017-Apr-15 08:29N 37°13' W 076°07'0 0.1
2017-Apr-15 06:57N 37°13' W 076°06'0 0.3
2017-Apr-15 06:31N 37°13' W 076°06'4 7.7
2017-Apr-15 06:00N 37°09' W 076°07'612.8
2017-Apr-15 05:30N 37°03' W 076°04'510.4
2017-Apr-15 05:01N 36°58' W 076°02'5 9.9
2017-Apr-15 04:30N 36°59' W 076°08'5 9.3
2017-Apr-15 04:01N 37°00' W 076°14'4 8.8
2017-Apr-15 03:30N 36°59' W 076°19'5 9.4
2017-Apr-15 03:00N 36°54' W 076°20'3 5.4
2017-Apr-15 02:31N 36°52' W 076°19'0 0.4
2017-Apr-15 01:56N 36°52' W 076°19'0 0.0
2017-Apr-15 01:29N 36°52' W 076°19'0 0.0
2017-Apr-15 00:59N 36°52' W 076°19'0 0.0
2017-Apr-15 00:29N 36°52' W 076°19'0 0.0
2017-Apr-14 23:59N 36°52' W 076°19'0 0.0
2017-Apr-14 23:29N 36°52' W 076°19'0 0.0
2017-Apr-14 22:59N 36°52' W 076°19'0 0.0
2017-Apr-14 22:29N 36°52' W 076°19'0 0.0
2017-Apr-14 21:59N 36°52' W 076°19'0 0.0
2017-Apr-14 21:29N 36°52' W 076°19'0 0.0
2017-Apr-14 20:53N 36°52' W 076°19'0 0.0
2017-Apr-14 20:29N 36°52' W 076°19'0 0.0
2017-Apr-14 19:59N 36°52' W 076°19'0 0.0
2017-Apr-14 19:29N 36°52' W 076°19'0 0.0
2017-Apr-14 18:59N 36°52' W 076°19'0 0.0
2017-Apr-14 18:29N 36°52' W 076°19'0 0.0
2017-Apr-14 17:59N 36°52' W 076°19'0 0.0
2017-Apr-14 17:29N 36°52' W 076°19'0 0.0
2017-Apr-14 16:59N 36°52' W 076°19'0 0.0
2017-Apr-14 16:29N 36°52' W 076°19'0 0.0
2017-Apr-14 15:59N 36°52' W 076°19'0 0.0
2017-Apr-14 15:29N 36°52' W 076°19'0 0.0
2017-Apr-14 14:59N 36°52' W 076°19'0 0.0
2017-Apr-14 13:59N 36°52' W 076°19'0 0.0
2017-Apr-14 13:29N 36°52' W 076°19'0 0.0
2017-Apr-14 12:56N 36°52' W 076°19'0 0.0
2017-Apr-14 12:26N 36°52' W 076°19'0 0.0
2017-Apr-14 11:59N 36°52' W 076°19'0 0.0
2017-Apr-14 11:29N 36°52' W 076°19'0 0.0
2017-Apr-14 10:59N 36°52' W 076°19'0 0.0
2017-Apr-14 10:26N 36°52' W 076°19'0 0.0
2017-Apr-14 09:59N 36°52' W 076°19'0 0.0
2017-Apr-14 09:29N 36°52' W 076°19'0 0.0
2017-Apr-14 08:59N 36°52' W 076°19'0 0.0
2017-Apr-14 08:29N 36°52' W 076°19'0 0.0
2017-Apr-14 07:59N 36°52' W 076°19'0 0.0
2017-Apr-14 07:29N 36°52' W 076°19'0 0.0
2017-Apr-14 06:59N 36°52' W 076°19'0 0.0
2017-Apr-14 06:29N 36°52' W 076°19'0 0.0
2017-Apr-14 05:59N 36°52' W 076°19'0 0.0
2017-Apr-14 05:29N 36°52' W 076°19'0 0.0
2017-Apr-14 04:59N 36°52' W 076°19'0 0.0
2017-Apr-14 04:29N 36°52' W 076°19'0 0.0
2017-Apr-14 03:59N 36°52' W 076°19'0 0.0
2017-Apr-14 03:29N 36°52' W 076°19'0 0.0
2017-Apr-14 02:59N 36°52' W 076°19'0 0.0
2017-Apr-14 02:29N 36°52' W 076°19'0 0.0
2017-Apr-14 01:59N 36°52' W 076°19'0 0.0
2017-Apr-14 01:29N 36°52' W 076°19'0 0.0
2017-Apr-14 00:59N 36°52' W 076°19'0 0.0
2017-Apr-14 00:29N 36°52' W 076°19'0 0.0
2017-Apr-13 23:59N 36°52' W 076°19'0 0.0
2017-Apr-13 23:29N 36°52' W 076°19'0 0.0
2017-Apr-13 22:59N 36°52' W 076°19'0 0.0
2017-Apr-13 22:29N 36°52' W 076°19'0 0.0
2017-Apr-13 21:59N 36°52' W 076°19'0 0.0
2017-Apr-13 21:29N 36°52' W 076°19'0 0.0
2017-Apr-13 20:59N 36°52' W 076°19'0 0.0
2017-Apr-13 20:29N 36°52' W 076°19'0 0.0
2017-Apr-13 19:59N 36°52' W 076°19'0 0.0
2017-Apr-13 19:29N 36°52' W 076°19'0 0.0
2017-Apr-13 18:59N 36°52' W 076°19'0 0.0
2017-Apr-13 18:29N 36°52' W 076°19'0 0.0
2017-Apr-13 17:59N 36°52' W 076°19'0 0.0
2017-Apr-13 17:29N 36°52' W 076°19'0 0.0
2017-Apr-13 16:56N 36°52' W 076°19'0 0.0
2017-Apr-13 16:29N 36°52' W 076°19'0 0.0
2017-Apr-13 15:59N 36°52' W 076°19'0 0.0
2017-Apr-13 15:29N 36°52' W 076°19'0 0.0
2017-Apr-13 14:59N 36°52' W 076°19'0 0.0
2017-Apr-13 13:59N 36°52' W 076°19'0 0.0
2017-Apr-13 13:29N 36°52' W 076°19'0 0.0
2017-Apr-13 12:59N 36°52' W 076°19'0 0.0
2017-Apr-13 12:29N 36°52' W 076°19'0 0.0
2017-Apr-13 11:59N 36°52' W 076°19'0 0.0
2017-Apr-13 11:29N 36°52' W 076°19'0 0.0
2017-Apr-13 10:59N 36°52' W 076°19'0 0.0
2017-Apr-13 10:29N 36°52' W 076°19'0 0.0
2017-Apr-13 09:59N 36°52' W 076°19'0 0.0
2017-Apr-13 09:29N 36°52' W 076°19'0 0.0
2017-Apr-13 08:59N 36°52' W 076°19'0 0.0
2017-Apr-13 08:29N 36°52' W 076°19'0 0.0
2017-Apr-13 07:59N 36°52' W 076°19'0 0.0
2017-Apr-13 07:29N 36°52' W 076°19'0 0.0
2017-Apr-13 06:59N 36°52' W 076°19'0 0.0
2017-Apr-13 06:29N 36°52' W 076°19'0 0.0
2017-Apr-13 05:59N 36°52' W 076°19'0 0.0
2017-Apr-13 05:29N 36°52' W 076°19'0 0.0
2017-Apr-13 04:59N 36°52' W 076°19'0 0.0
2017-Apr-13 04:29N 36°52' W 076°19'0 0.0
2017-Apr-13 03:59N 36°52' W 076°19'0 0.0
2017-Apr-13 03:29N 36°52' W 076°19'0 0.0
2017-Apr-13 02:59N 36°52' W 076°19'0 0.0
2017-Apr-13 02:29N 36°52' W 076°19'0 0.0
2017-Apr-13 01:59N 36°52' W 076°19'0 0.0
2017-Apr-13 01:29N 36°52' W 076°19'0 0.0
2017-Apr-13 00:59N 36°52' W 076°19'0 0.0
2017-Apr-13 00:29N 36°52' W 076°19'0 0.0
2017-Apr-12 23:59N 36°52' W 076°19'0 0.0
2017-Apr-12 23:20N 36°52' W 076°19'0 0.0
2017-Apr-12 22:59N 36°52' W 076°19'0 0.0
2017-Apr-12 22:29N 36°52' W 076°19'0 0.0
2017-Apr-12 21:59N 36°52' W 076°19'0 0.0
2017-Apr-12 21:29N 36°52' W 076°19'0 0.0
2017-Apr-12 20:59N 36°52' W 076°19'0 0.0
2017-Apr-12 20:29N 36°52' W 076°19'0 0.0
2017-Apr-12 19:56N 36°52' W 076°19'0 0.0
2017-Apr-12 19:29N 36°52' W 076°19'0 0.0
2017-Apr-12 18:59N 36°52' W 076°19'0 0.0
2017-Apr-12 18:29N 36°52' W 076°19'0 0.0
2017-Apr-12 17:59N 36°52' W 076°19'0 0.0
2017-Apr-12 17:29N 36°52' W 076°19'0 0.0
2017-Apr-12 16:53N 36°52' W 076°19'0 0.0
2017-Apr-12 16:29N 36°52' W 076°19'0 0.0
2017-Apr-12 15:59N 36°52' W 076°19'0 0.0
2017-Apr-12 15:29N 36°52' W 076°19'0 0.0
2017-Apr-12 14:59N 36°52' W 076°19'0 0.0
2017-Apr-12 14:29N 36°52' W 076°19'0 0.0
2017-Apr-12 13:29N 36°52' W 076°19'0 0.0
2017-Apr-12 12:59N 36°52' W 076°19'0 0.0
2017-Apr-12 12:29N 36°52' W 076°19'0 0.0
2017-Apr-12 11:59N 36°52' W 076°19'0 0.0
2017-Apr-12 11:29N 36°52' W 076°19'0 0.0
2017-Apr-12 10:59N 36°52' W 076°19'0 0.0
2017-Apr-12 10:29N 36°52' W 076°19'0 0.0
2017-Apr-12 09:59N 36°52' W 076°19'0 0.0
2017-Apr-12 09:29N 36°52' W 076°19'0 0.0
2017-Apr-12 08:59N 36°52' W 076°19'0 0.0
2017-Apr-12 08:29N 36°52' W 076°19'0 0.0
2017-Apr-12 07:59N 36°52' W 076°19'0 0.0
2017-Apr-12 07:29N 36°52' W 076°19'0 0.0
2017-Apr-12 06:59N 36°52' W 076°19'0 0.0
2017-Apr-12 06:14N 36°52' W 076°19'0 0.0
2017-Apr-12 05:59N 36°52' W 076°19'0 0.0
2017-Apr-12 05:29N 36°52' W 076°19'0 0.0
2017-Apr-12 04:56N 36°52' W 076°19'0 0.0
2017-Apr-12 04:29N 36°52' W 076°19'0 0.0
2017-Apr-12 03:59N 36°52' W 076°19'0 0.0
2017-Apr-12 03:29N 36°52' W 076°19'0 0.0
2017-Apr-12 02:56N 36°52' W 076°19'0 0.0
2017-Apr-12 02:29N 36°52' W 076°19'0 0.0
2017-Apr-12 01:59N 36°52' W 076°19'0 0.0
2017-Apr-12 01:29N 36°52' W 076°19'0 0.0
2017-Apr-12 00:56N 36°52' W 076°19'0 0.0
2017-Apr-12 00:29N 36°52' W 076°19'0 0.0
2017-Apr-11 23:59N 36°52' W 076°19'0 0.0
2017-Apr-11 23:29N 36°52' W 076°19'0 0.0
2017-Apr-11 22:59N 36°52' W 076°19'0 0.0
2017-Apr-11 22:29N 36°52' W 076°19'0 0.0
2017-Apr-11 21:59N 36°52' W 076°19'0 0.0
2017-Apr-11 21:29N 36°52' W 076°19'0 0.0
2017-Apr-11 20:59N 36°52' W 076°19'0 0.0
2017-Apr-11 20:29N 36°52' W 076°19'0 0.0
2017-Apr-11 19:59N 36°52' W 076°19'0 0.0
2017-Apr-11 19:29N 36°52' W 076°19'0 0.0
2017-Apr-11 18:59N 36°52' W 076°19'0 0.0
2017-Apr-11 18:29N 36°52' W 076°19'0 0.0
2017-Apr-11 17:59N 36°52' W 076°19'0 0.0
2017-Apr-11 17:29N 36°52' W 076°19'0 0.0
2017-Apr-11 16:59N 36°52' W 076°19'0 0.0
2017-Apr-11 16:29N 36°52' W 076°19'0 0.0
2017-Apr-11 15:56N 36°52' W 076°19'0 0.0
2017-Apr-11 15:29N 36°52' W 076°19'0 0.0
2017-Apr-11 14:59N 36°52' W 076°19'0 0.0
2017-Apr-11 14:29N 36°52' W 076°19'0 0.0
2017-Apr-11 13:29N 36°52' W 076°19'0 0.0
2017-Apr-11 12:59N 36°52' W 076°19'0 0.0
2017-Apr-11 12:29N 36°52' W 076°19'0 0.0
2017-Apr-11 11:59N 36°52' W 076°19'0 0.0
2017-Apr-11 11:29N 36°52' W 076°19'0 0.0
2017-Apr-11 10:59N 36°52' W 076°19'0 0.0
2017-Apr-11 10:29N 36°52' W 076°19'0 0.0
2017-Apr-11 09:59N 36°52' W 076°19'0 0.0
2017-Apr-11 09:29N 36°52' W 076°19'0 0.0
2017-Apr-11 08:59N 36°52' W 076°19'0 0.0
2017-Apr-11 08:29N 36°52' W 076°19'0 0.0
2017-Apr-11 07:59N 36°52' W 076°19'0 0.0
2017-Apr-11 07:29N 36°52' W 076°19'0 0.0
2017-Apr-11 06:59N 36°52' W 076°19'0 0.0
2017-Apr-11 06:29N 36°52' W 076°19'0 0.0
2017-Apr-11 05:59N 36°52' W 076°19'0 0.0
2017-Apr-11 05:29N 36°52' W 076°19'0 0.0
2017-Apr-11 04:59N 36°52' W 076°19'0 0.0
2017-Apr-11 04:29N 36°52' W 076°19'0 0.0
2017-Apr-11 03:59N 36°52' W 076°19'0 0.0
2017-Apr-11 03:29N 36°52' W 076°19'0 0.0
2017-Apr-11 02:59N 36°52' W 076°19'0 0.0
2017-Apr-11 02:29N 36°52' W 076°19'0 0.0
2017-Apr-11 01:59N 36°52' W 076°19'0 0.0
2017-Apr-11 01:29N 36°52' W 076°19'0 0.0
2017-Apr-11 00:59N 36°52' W 076°19'0 0.0
2017-Apr-11 00:29N 36°52' W 076°19'0 0.0
2017-Apr-10 23:59N 36°52' W 076°19'0 0.0
2017-Apr-10 23:29N 36°52' W 076°19'0 0.0
2017-Apr-10 22:59N 36°52' W 076°19'0 0.0
2017-Apr-10 22:29N 36°52' W 076°19'0 0.0
2017-Apr-10 21:59N 36°52' W 076°19'0 0.0
2017-Apr-10 21:29N 36°52' W 076°19'0 0.0
2017-Apr-10 20:59N 36°52' W 076°19'0 0.0
2017-Apr-10 20:29N 36°52' W 076°19'0 0.0
2017-Apr-10 19:59N 36°52' W 076°19'0 0.0
2017-Apr-10 19:29N 36°52' W 076°19'0 0.0
2017-Apr-10 18:59N 36°52' W 076°19'0 0.0
2017-Apr-10 18:29N 36°52' W 076°19'0 0.0
2017-Apr-10 17:59N 36°52' W 076°19'0 0.0
2017-Apr-10 17:29N 36°52' W 076°19'0 0.0
2017-Apr-10 16:59N 36°52' W 076°19'0 0.0
2017-Apr-10 16:29N 36°52' W 076°19'0 0.0
2017-Apr-10 15:59N 36°52' W 076°19'0 0.0
2017-Apr-10 15:29N 36°52' W 076°19'0 0.0
2017-Apr-10 14:59N 36°52' W 076°19'0 0.0
2017-Apr-10 13:59N 36°52' W 076°19'0 0.0
2017-Apr-10 13:29N 36°52' W 076°19'0 0.0
2017-Apr-10 12:59N 36°52' W 076°19'0 0.0
2017-Apr-10 12:29N 36°52' W 076°19'0 0.0
2017-Apr-10 11:59N 36°52' W 076°19'0 0.0
2017-Apr-10 11:29N 36°52' W 076°19'0 0.0
2017-Apr-10 10:59N 36°52' W 076°19'0 0.0
2017-Apr-10 10:29N 36°52' W 076°19'0 0.0
2017-Apr-10 09:59N 36°52' W 076°19'0 0.0
2017-Apr-10 09:29N 36°52' W 076°19'0 0.0
2017-Apr-10 08:56N 36°52' W 076°19'0 0.0
2017-Apr-10 08:29N 36°52' W 076°19'0 0.0
2017-Apr-10 07:59N 36°52' W 076°19'0 0.0
2017-Apr-10 07:29N 36°52' W 076°19'0 0.0
2017-Apr-10 06:59N 36°52' W 076°19'0 0.0
2017-Apr-10 06:29N 36°52' W 076°19'  

Dump ship's entire track history